sensor_id;sensor_type;location;lat;lon;timestamp;P1;durP1;ratioP1;P2;durP2;ratioP2
65835;SDS011;52595;51.608;7.216;2022-09-09T00:02:17;2.72;;;1.13;;
65835;SDS011;52595;51.608;7.216;2022-09-09T00:04:48;2.60;;;1.02;;
65835;SDS011;52595;51.608;7.216;2022-09-09T00:07:28;1.70;;;1.17;;
65835;SDS011;52595;51.608;7.216;2022-09-09T00:13:05;2.28;;;0.80;;
65835;SDS011;52595;51.608;7.216;2022-09-09T00:21:08;2.92;;;1.20;;
65835;SDS011;52595;51.608;7.216;2022-09-09T00:23:43;4.35;;;1.30;;
65835;SDS011;52595;51.608;7.216;2022-09-09T00:28:56;3.60;;;1.10;;
65835;SDS011;52595;51.608;7.216;2022-09-09T00:31:45;2.05;;;1.10;;
65835;SDS011;52595;51.608;7.216;2022-09-09T00:34:18;3.67;;;1.30;;
65835;SDS011;52595;51.608;7.216;2022-09-09T00:36:48;4.35;;;1.38;;
65835;SDS011;52595;51.608;7.216;2022-09-09T00:42:40;3.20;;;1.45;;
65835;SDS011;52595;51.608;7.216;2022-09-09T00:45:11;3.13;;;1.45;;
65835;SDS011;52595;51.608;7.216;2022-09-09T00:47:52;3.35;;;1.50;;
65835;SDS011;52595;51.608;7.216;2022-09-09T00:55:48;4.55;;;1.60;;
65835;SDS011;52595;51.608;7.216;2022-09-09T00:58:20;3.80;;;1.40;;
65835;SDS011;52595;51.608;7.216;2022-09-09T01:01:01;1.67;;;1.20;;
65835;SDS011;52595;51.608;7.216;2022-09-09T01:03:35;2.38;;;1.27;;
65835;SDS011;52595;51.608;7.216;2022-09-09T01:06:14;2.38;;;1.20;;
65835;SDS011;52595;51.608;7.216;2022-09-09T01:12:16;3.15;;;1.20;;
65835;SDS011;52595;51.608;7.216;2022-09-09T01:17:01;2.45;;;1.30;;
65835;SDS011;52595;51.608;7.216;2022-09-09T01:27:17;3.00;;;1.30;;
65835;SDS011;52595;51.608;7.216;2022-09-09T01:29:44;2.72;;;1.40;;
65835;SDS011;52595;51.608;7.216;2022-09-09T01:37:55;3.60;;;1.40;;
65835;SDS011;52595;51.608;7.216;2022-09-09T01:40:21;2.72;;;1.40;;
65835;SDS011;52595;51.608;7.216;2022-09-09T01:42:46;1.90;;;1.30;;
65835;SDS011;52595;51.608;7.216;2022-09-09T01:45:12;2.35;;;1.38;;
65835;SDS011;52595;51.608;7.216;2022-09-09T01:47:38;2.85;;;1.45;;
65835;SDS011;52595;51.608;7.216;2022-09-09T01:50:03;4.50;;;1.55;;
65835;SDS011;52595;51.608;7.216;2022-09-09T01:52:29;3.25;;;1.30;;
65835;SDS011;52595;51.608;7.216;2022-09-09T01:54:57;3.08;;;1.48;;
65835;SDS011;52595;51.608;7.216;2022-09-09T01:59:52;2.95;;;1.42;;
65835;SDS011;52595;51.608;7.216;2022-09-09T02:08:55;4.93;;;1.88;;
65835;SDS011;52595;51.608;7.216;2022-09-09T02:11:16;3.72;;;1.90;;
65835;SDS011;52595;51.608;7.216;2022-09-09T02:13:45;3.65;;;1.77;;
65835;SDS011;52595;51.608;7.216;2022-09-09T02:16:13;5.10;;;2.10;;
65835;SDS011;52595;51.608;7.216;2022-09-09T02:18:43;4.22;;;2.15;;
65835;SDS011;52595;51.608;7.216;2022-09-09T02:21:19;6.05;;;2.60;;
65835;SDS011;52595;51.608;7.216;2022-09-09T02:23:47;6.93;;;2.90;;
65835;SDS011;52595;51.608;7.216;2022-09-09T02:26:17;4.40;;;2.80;;
65835;SDS011;52595;51.608;7.216;2022-09-09T02:28:47;7.28;;;3.15;;
65835;SDS011;52595;51.608;7.216;2022-09-09T02:31:15;5.03;;;3.03;;
65835;SDS011;52595;51.608;7.216;2022-09-09T02:33:44;3.60;;;2.58;;
65835;SDS011;52595;51.608;7.216;2022-09-09T02:36:16;7.35;;;2.97;;
65835;SDS011;52595;51.608;7.216;2022-09-09T02:38:46;7.18;;;2.70;;
65835;SDS011;52595;51.608;7.216;2022-09-09T02:41:23;8.90;;;2.83;;
65835;SDS011;52595;51.608;7.216;2022-09-09T02:43:53;5.45;;;2.67;;
65835;SDS011;52595;51.608;7.216;2022-09-09T02:51:53;5.63;;;2.42;;
65835;SDS011;52595;51.608;7.216;2022-09-09T02:54:31;8.57;;;2.55;;
65835;SDS011;52595;51.608;7.216;2022-09-09T02:59:46;4.07;;;2.42;;
65835;SDS011;52595;51.608;7.216;2022-09-09T03:02:12;8.38;;;2.50;;
65835;SDS011;52595;51.608;7.216;2022-09-09T03:04:38;6.10;;;2.83;;
65835;SDS011;52595;51.608;7.216;2022-09-09T03:07:04;8.13;;;3.00;;
65835;SDS011;52595;51.608;7.216;2022-09-09T03:09:31;7.30;;;2.55;;
65835;SDS011;52595;51.608;7.216;2022-09-09T03:11:57;5.55;;;2.60;;
65835;SDS011;52595;51.608;7.216;2022-09-09T03:14:23;4.88;;;2.60;;
65835;SDS011;52595;51.608;7.216;2022-09-09T03:16:52;5.68;;;2.90;;
65835;SDS011;52595;51.608;7.216;2022-09-09T03:19:19;6.70;;;2.83;;
65835;SDS011;52595;51.608;7.216;2022-09-09T03:21:46;5.82;;;2.60;;
65835;SDS011;52595;51.608;7.216;2022-09-09T03:24:11;8.80;;;2.70;;
65835;SDS011;52595;51.608;7.216;2022-09-09T03:26:37;6.10;;;2.80;;
65835;SDS011;52595;51.608;7.216;2022-09-09T03:29:06;6.60;;;2.58;;
65835;SDS011;52595;51.608;7.216;2022-09-09T03:31:32;5.40;;;2.40;;
65835;SDS011;52595;51.608;7.216;2022-09-09T03:33:59;4.68;;;2.67;;
65835;SDS011;52595;51.608;7.216;2022-09-09T03:36:25;7.03;;;2.95;;
65835;SDS011;52595;51.608;7.216;2022-09-09T03:38:52;7.40;;;2.63;;
65835;SDS011;52595;51.608;7.216;2022-09-09T03:41:19;4.90;;;2.70;;
65835;SDS011;52595;51.608;7.216;2022-09-09T03:43:44;4.78;;;2.75;;
65835;SDS011;52595;51.608;7.216;2022-09-09T03:46:10;5.22;;;2.90;;
65835;SDS011;52595;51.608;7.216;2022-09-09T03:48:35;5.10;;;2.55;;
65835;SDS011;52595;51.608;7.216;2022-09-09T03:51:01;5.28;;;2.80;;
65835;SDS011;52595;51.608;7.216;2022-09-09T03:53:27;6.68;;;2.75;;
65835;SDS011;52595;51.608;7.216;2022-09-09T03:55:53;5.38;;;2.80;;
65835;SDS011;52595;51.608;7.216;2022-09-09T03:58:24;4.07;;;2.20;;
65835;SDS011;52595;51.608;7.216;2022-09-09T04:03:23;5.80;;;2.60;;
65835;SDS011;52595;51.608;7.216;2022-09-09T04:05:53;4.90;;;2.40;;
65835;SDS011;52595;51.608;7.216;2022-09-09T04:08:19;7.47;;;3.00;;
65835;SDS011;52595;51.608;7.216;2022-09-09T04:10:46;7.43;;;2.60;;
65835;SDS011;52595;51.608;7.216;2022-09-09T04:13:12;4.78;;;2.47;;
65835;SDS011;52595;51.608;7.216;2022-09-09T04:15:39;6.25;;;2.50;;
65835;SDS011;52595;51.608;7.216;2022-09-09T04:18:05;4.50;;;2.20;;
65835;SDS011;52595;51.608;7.216;2022-09-09T04:20:31;4.63;;;2.40;;
65835;SDS011;52595;51.608;7.216;2022-09-09T04:22:58;6.97;;;2.33;;
65835;SDS011;52595;51.608;7.216;2022-09-09T04:25:23;5.72;;;2.47;;
65835;SDS011;52595;51.608;7.216;2022-09-09T04:27:53;6.20;;;2.40;;
65835;SDS011;52595;51.608;7.216;2022-09-09T04:30:19;5.35;;;2.70;;
65835;SDS011;52595;51.608;7.216;2022-09-09T04:32:46;4.72;;;2.42;;
65835;SDS011;52595;51.608;7.216;2022-09-09T04:35:11;4.97;;;2.30;;
65835;SDS011;52595;51.608;7.216;2022-09-09T04:37:36;6.15;;;2.60;;
65835;SDS011;52595;51.608;7.216;2022-09-09T04:40:02;5.82;;;2.30;;
65835;SDS011;52595;51.608;7.216;2022-09-09T04:42:27;7.00;;;2.70;;
65835;SDS011;52595;51.608;7.216;2022-09-09T04:44:53;6.55;;;2.60;;
65835;SDS011;52595;51.608;7.216;2022-09-09T04:47:19;6.40;;;2.40;;
65835;SDS011;52595;51.608;7.216;2022-09-09T04:49:44;6.85;;;2.42;;
65835;SDS011;52595;51.608;7.216;2022-09-09T04:52:09;6.22;;;2.67;;
65835;SDS011;52595;51.608;7.216;2022-09-09T04:54:35;8.32;;;2.50;;
65835;SDS011;52595;51.608;7.216;2022-09-09T04:57:00;9.82;;;3.17;;
65835;SDS011;52595;51.608;7.216;2022-09-09T04:59:26;6.68;;;2.42;;
65835;SDS011;52595;51.608;7.216;2022-09-09T05:01:51;8.30;;;2.95;;
65835;SDS011;52595;51.608;7.216;2022-09-09T05:04:16;6.00;;;2.70;;
65835;SDS011;52595;51.608;7.216;2022-09-09T05:06:42;9.02;;;2.90;;
65835;SDS011;52595;51.608;7.216;2022-09-09T05:09:07;6.30;;;2.80;;
65835;SDS011;52595;51.608;7.216;2022-09-09T05:11:33;8.98;;;2.80;;
65835;SDS011;52595;51.608;7.216;2022-09-09T05:14:01;5.25;;;2.78;;
65835;SDS011;52595;51.608;7.216;2022-09-09T05:16:28;9.43;;;2.72;;
65835;SDS011;52595;51.608;7.216;2022-09-09T05:18:53;8.95;;;2.90;;
65835;SDS011;52595;51.608;7.216;2022-09-09T05:21:19;6.40;;;2.63;;
65835;SDS011;52595;51.608;7.216;2022-09-09T05:23:46;5.00;;;2.70;;
65835;SDS011;52595;51.608;7.216;2022-09-09T05:26:13;4.90;;;2.47;;
65835;SDS011;52595;51.608;7.216;2022-09-09T05:28:40;6.32;;;2.65;;
65835;SDS011;52595;51.608;7.216;2022-09-09T05:31:06;5.70;;;2.45;;
65835;SDS011;52595;51.608;7.216;2022-09-09T05:33:33;6.30;;;2.85;;
65835;SDS011;52595;51.608;7.216;2022-09-09T05:36:00;6.65;;;2.65;;
65835;SDS011;52595;51.608;7.216;2022-09-09T05:38:32;8.65;;;2.80;;
65835;SDS011;52595;51.608;7.216;2022-09-09T05:40:58;7.60;;;2.58;;
65835;SDS011;52595;51.608;7.216;2022-09-09T05:43:24;7.13;;;2.13;;
65835;SDS011;52595;51.608;7.216;2022-09-09T05:46:01;8.18;;;2.30;;
65835;SDS011;52595;51.608;7.216;2022-09-09T05:48:29;6.53;;;2.35;;
65835;SDS011;52595;51.608;7.216;2022-09-09T05:50:58;7.93;;;2.45;;
65835;SDS011;52595;51.608;7.216;2022-09-09T05:53:24;5.18;;;2.33;;
65835;SDS011;52595;51.608;7.216;2022-09-09T05:56:00;6.88;;;2.60;;
65835;SDS011;52595;51.608;7.216;2022-09-09T05:58:28;6.82;;;2.40;;
65835;SDS011;52595;51.608;7.216;2022-09-09T06:01:01;6.47;;;2.60;;
65835;SDS011;52595;51.608;7.216;2022-09-09T06:03:34;5.20;;;2.35;;
65835;SDS011;52595;51.608;7.216;2022-09-09T06:06:01;11.57;;;2.70;;
65835;SDS011;52595;51.608;7.216;2022-09-09T06:08:30;6.97;;;2.72;;
65835;SDS011;52595;51.608;7.216;2022-09-09T06:11:06;5.75;;;2.42;;
65835;SDS011;52595;51.608;7.216;2022-09-09T06:13:33;5.20;;;2.33;;
65835;SDS011;52595;51.608;7.216;2022-09-09T06:16:00;8.70;;;2.53;;
65835;SDS011;52595;51.608;7.216;2022-09-09T06:18:25;6.38;;;2.22;;
65835;SDS011;52595;51.608;7.216;2022-09-09T06:23:24;5.13;;;2.10;;
65835;SDS011;52595;51.608;7.216;2022-09-09T06:25:50;8.13;;;2.60;;
65835;SDS011;52595;51.608;7.216;2022-09-09T06:28:16;7.15;;;2.47;;
65835;SDS011;52595;51.608;7.216;2022-09-09T06:30:42;10.38;;;2.88;;
65835;SDS011;52595;51.608;7.216;2022-09-09T06:33:08;5.07;;;2.08;;
65835;SDS011;52595;51.608;7.216;2022-09-09T06:35:34;9.02;;;2.10;;
65835;SDS011;52595;51.608;7.216;2022-09-09T06:38:00;7.03;;;2.40;;
65835;SDS011;52595;51.608;7.216;2022-09-09T06:40:25;5.38;;;2.15;;
65835;SDS011;52595;51.608;7.216;2022-09-09T06:42:50;6.03;;;2.30;;
65835;SDS011;52595;51.608;7.216;2022-09-09T06:45:16;6.55;;;2.15;;
65835;SDS011;52595;51.608;7.216;2022-09-09T06:47:42;5.68;;;2.30;;
65835;SDS011;52595;51.608;7.216;2022-09-09T06:50:08;6.45;;;2.17;;
65835;SDS011;52595;51.608;7.216;2022-09-09T06:52:35;8.98;;;2.50;;
65835;SDS011;52595;51.608;7.216;2022-09-09T06:55:00;6.20;;;2.00;;
65835;SDS011;52595;51.608;7.216;2022-09-09T06:57:26;5.72;;;2.13;;
65835;SDS011;52595;51.608;7.216;2022-09-09T06:59:51;5.88;;;2.10;;
65835;SDS011;52595;51.608;7.216;2022-09-09T07:02:16;7.07;;;2.13;;
65835;SDS011;52595;51.608;7.216;2022-09-09T07:04:42;8.77;;;2.75;;
65835;SDS011;52595;51.608;7.216;2022-09-09T07:07:08;5.57;;;2.30;;
65835;SDS011;52595;51.608;7.216;2022-09-09T07:09:34;6.82;;;2.20;;
65835;SDS011;52595;51.608;7.216;2022-09-09T07:12:00;5.47;;;2.20;;
65835;SDS011;52595;51.608;7.216;2022-09-09T07:14:25;6.90;;;2.20;;
65835;SDS011;52595;51.608;7.216;2022-09-09T07:16:52;7.65;;;2.20;;
65835;SDS011;52595;51.608;7.216;2022-09-09T07:19:17;6.53;;;2.05;;
65835;SDS011;52595;51.608;7.216;2022-09-09T07:21:42;7.28;;;2.10;;
65835;SDS011;52595;51.608;7.216;2022-09-09T07:24:10;9.02;;;2.10;;
65835;SDS011;52595;51.608;7.216;2022-09-09T07:26:36;10.10;;;2.20;;
65835;SDS011;52595;51.608;7.216;2022-09-09T07:29:03;6.40;;;2.20;;
65835;SDS011;52595;51.608;7.216;2022-09-09T07:31:33;8.30;;;2.10;;
65835;SDS011;52595;51.608;7.216;2022-09-09T07:34:01;5.80;;;1.90;;
65835;SDS011;52595;51.608;7.216;2022-09-09T07:36:29;9.43;;;2.17;;
65835;SDS011;52595;51.608;7.216;2022-09-09T07:38:56;7.68;;;1.90;;
65835;SDS011;52595;51.608;7.216;2022-09-09T07:41:25;5.40;;;1.70;;
65835;SDS011;52595;51.608;7.216;2022-09-09T07:43:53;6.07;;;1.83;;
65835;SDS011;52595;51.608;7.216;2022-09-09T07:46:19;4.47;;;1.70;;
65835;SDS011;52595;51.608;7.216;2022-09-09T07:48:49;5.80;;;1.77;;
65835;SDS011;52595;51.608;7.216;2022-09-09T07:51:44;6.68;;;2.00;;
65835;SDS011;52595;51.608;7.216;2022-09-09T07:54:11;4.03;;;1.70;;
65835;SDS011;52595;51.608;7.216;2022-09-09T07:56:43;6.55;;;1.70;;
65835;SDS011;52595;51.608;7.216;2022-09-09T07:59:09;5.63;;;1.80;;
65835;SDS011;52595;51.608;7.216;2022-09-09T08:01:43;6.18;;;1.90;;
65835;SDS011;52595;51.608;7.216;2022-09-09T08:04:17;6.53;;;1.80;;
65835;SDS011;52595;51.608;7.216;2022-09-09T08:06:47;7.45;;;1.83;;
65835;SDS011;52595;51.608;7.216;2022-09-09T08:09:14;3.60;;;1.42;;
65835;SDS011;52595;51.608;7.216;2022-09-09T08:11:40;7.65;;;1.83;;
65835;SDS011;52595;51.608;7.216;2022-09-09T08:14:07;6.53;;;1.92;;
65835;SDS011;52595;51.608;7.216;2022-09-09T08:16:34;6.40;;;1.85;;
65835;SDS011;52595;51.608;7.216;2022-09-09T08:19:02;7.88;;;1.90;;
65835;SDS011;52595;51.608;7.216;2022-09-09T08:21:29;8.35;;;2.05;;
65835;SDS011;52595;51.608;7.216;2022-09-09T08:23:57;7.65;;;2.20;;
65835;SDS011;52595;51.608;7.216;2022-09-09T08:26:25;5.97;;;1.73;;
65835;SDS011;52595;51.608;7.216;2022-09-09T08:28:53;5.45;;;1.80;;
65835;SDS011;52595;51.608;7.216;2022-09-09T08:31:27;4.60;;;1.80;;
65835;SDS011;52595;51.608;7.216;2022-09-09T08:34:00;10.55;;;2.03;;
65835;SDS011;52595;51.608;7.216;2022-09-09T08:36:28;6.47;;;1.70;;
65835;SDS011;52595;51.608;7.216;2022-09-09T08:38:55;5.13;;;1.92;;
65835;SDS011;52595;51.608;7.216;2022-09-09T09:03:36;5.93;;;1.90;;
65835;SDS011;52595;51.608;7.216;2022-09-09T09:09:02;5.43;;;2.03;;
65835;SDS011;52595;51.608;7.216;2022-09-09T09:11:40;7.45;;;2.08;;
65835;SDS011;52595;51.608;7.216;2022-09-09T09:14:18;5.68;;;2.05;;
65835;SDS011;52595;51.608;7.216;2022-09-09T09:17:21;8.40;;;2.28;;
65835;SDS011;52595;51.608;7.216;2022-09-09T09:19:40;8.98;;;2.10;;
65835;SDS011;52595;51.608;7.216;2022-09-09T09:24:50;6.38;;;1.90;;
65835;SDS011;52595;51.608;7.216;2022-09-09T09:30:35;5.85;;;2.20;;
65835;SDS011;52595;51.608;7.216;2022-09-09T09:36:11;6.40;;;2.05;;
65835;SDS011;52595;51.608;7.216;2022-09-09T09:38:40;4.07;;;1.60;;
65835;SDS011;52595;51.608;7.216;2022-09-09T09:41:17;6.57;;;2.20;;
65835;SDS011;52595;51.608;7.216;2022-09-09T09:43:57;3.58;;;1.85;;
65835;SDS011;52595;51.608;7.216;2022-09-09T09:46:26;6.07;;;2.17;;
65835;SDS011;52595;51.608;7.216;2022-09-09T09:48:56;6.05;;;1.80;;
65835;SDS011;52595;51.608;7.216;2022-09-09T09:51:26;10.38;;;2.22;;
65835;SDS011;52595;51.608;7.216;2022-09-09T09:53:53;3.88;;;1.67;;
65835;SDS011;52595;51.608;7.216;2022-09-09T09:56:26;6.15;;;2.38;;
65835;SDS011;52595;51.608;7.216;2022-09-09T09:58:57;4.20;;;1.90;;
65835;SDS011;52595;51.608;7.216;2022-09-09T10:01:27;6.00;;;1.98;;
65835;SDS011;52595;51.608;7.216;2022-09-09T10:04:02;5.40;;;2.00;;
65835;SDS011;52595;51.608;7.216;2022-09-09T10:06:41;7.47;;;2.22;;
65835;SDS011;52595;51.608;7.216;2022-09-09T10:09:20;5.68;;;2.25;;
65835;SDS011;52595;51.608;7.216;2022-09-09T10:17:20;6.05;;;1.80;;
65835;SDS011;52595;51.608;7.216;2022-09-09T10:22:34;2.97;;;1.40;;
65835;SDS011;52595;51.608;7.216;2022-09-09T10:33:09;4.68;;;1.42;;
65835;SDS011;52595;51.608;7.216;2022-09-09T10:35:45;4.10;;;1.35;;
65835;SDS011;52595;51.608;7.216;2022-09-09T10:40:50;3.67;;;1.40;;
65835;SDS011;52595;51.608;7.216;2022-09-09T10:43:39;5.22;;;1.48;;
65835;SDS011;52595;51.608;7.216;2022-09-09T10:57:35;4.30;;;1.40;;
65835;SDS011;52595;51.608;7.216;2022-09-09T11:00:06;4.18;;;1.33;;
65835;SDS011;52595;51.608;7.216;2022-09-09T11:02:39;5.28;;;1.30;;
65835;SDS011;52595;51.608;7.216;2022-09-09T11:05:14;4.20;;;1.38;;
65835;SDS011;52595;51.608;7.216;2022-09-09T11:08:15;2.38;;;1.20;;
65835;SDS011;52595;51.608;7.216;2022-09-09T11:10:45;4.07;;;1.50;;
65835;SDS011;52595;51.608;7.216;2022-09-09T11:13:23;3.40;;;1.20;;
65835;SDS011;52595;51.608;7.216;2022-09-09T11:16:12;4.22;;;1.30;;
65835;SDS011;52595;51.608;7.216;2022-09-09T11:18:46;3.00;;;1.10;;
65835;SDS011;52595;51.608;7.216;2022-09-09T11:21:23;4.63;;;1.30;;
65835;SDS011;52595;51.608;7.216;2022-09-09T11:24:05;2.47;;;1.05;;
65835;SDS011;52595;51.608;7.216;2022-09-09T11:26:42;5.18;;;1.20;;
65835;SDS011;52595;51.608;7.216;2022-09-09T11:29:17;4.10;;;1.30;;
65835;SDS011;52595;51.608;7.216;2022-09-09T11:34:50;2.38;;;1.20;;
65835;SDS011;52595;51.608;7.216;2022-09-09T11:37:23;3.50;;;1.40;;
65835;SDS011;52595;51.608;7.216;2022-09-09T11:40:37;2.72;;;1.48;;
65835;SDS011;52595;51.608;7.216;2022-09-09T11:42:46;4.00;;;1.48;;
65835;SDS011;52595;51.608;7.216;2022-09-09T11:48:01;3.92;;;1.50;;
65835;SDS011;52595;51.608;7.216;2022-09-09T11:50:34;4.70;;;1.50;;
65835;SDS011;52595;51.608;7.216;2022-09-09T11:53:15;3.55;;;1.70;;
65835;SDS011;52595;51.608;7.216;2022-09-09T11:55:47;5.65;;;1.50;;
65835;SDS011;52595;51.608;7.216;2022-09-09T11:58:17;3.67;;;1.40;;
65835;SDS011;52595;51.608;7.216;2022-09-09T12:00:45;5.65;;;1.40;;
65835;SDS011;52595;51.608;7.216;2022-09-09T12:06:20;4.50;;;1.30;;
65835;SDS011;52595;51.608;7.216;2022-09-09T12:08:56;4.95;;;1.35;;
65835;SDS011;52595;51.608;7.216;2022-09-09T12:11:32;4.57;;;1.20;;
65835;SDS011;52595;51.608;7.216;2022-09-09T12:13:58;4.97;;;1.27;;
65835;SDS011;52595;51.608;7.216;2022-09-09T12:21:51;4.30;;;1.40;;
65835;SDS011;52595;51.608;7.216;2022-09-09T12:24:29;4.60;;;1.42;;
65835;SDS011;52595;51.608;7.216;2022-09-09T12:27:12;4.72;;;1.30;;
65835;SDS011;52595;51.608;7.216;2022-09-09T12:32:24;5.32;;;1.58;;
65835;SDS011;52595;51.608;7.216;2022-09-09T12:35:02;4.32;;;1.30;;
65835;SDS011;52595;51.608;7.216;2022-09-09T12:37:35;4.47;;;1.60;;
65835;SDS011;52595;51.608;7.216;2022-09-09T12:42:30;3.67;;;1.40;;
65835;SDS011;52595;51.608;7.216;2022-09-09T12:45:02;3.33;;;1.10;;
65835;SDS011;52595;51.608;7.216;2022-09-09T12:47:44;2.50;;;1.10;;
65835;SDS011;52595;51.608;7.216;2022-09-09T12:52:57;2.05;;;1.10;;
65835;SDS011;52595;51.608;7.216;2022-09-09T12:55:32;5.03;;;1.40;;
65835;SDS011;52595;51.608;7.216;2022-09-09T12:58:01;2.80;;;1.25;;
65835;SDS011;52595;51.608;7.216;2022-09-09T13:00:32;4.72;;;1.20;;
65835;SDS011;52595;51.608;7.216;2022-09-09T13:02:59;3.78;;;1.30;;
65835;SDS011;52595;51.608;7.216;2022-09-09T13:05:27;3.78;;;1.40;;
65835;SDS011;52595;51.608;7.216;2022-09-09T13:08:09;2.80;;;1.20;;
65835;SDS011;52595;51.608;7.216;2022-09-09T13:10:38;4.57;;;1.67;;
65835;SDS011;52595;51.608;7.216;2022-09-09T13:13:15;3.45;;;1.27;;
65835;SDS011;52595;51.608;7.216;2022-09-09T13:15:54;3.17;;;1.20;;
65835;SDS011;52595;51.608;7.216;2022-09-09T13:18:22;1.85;;;1.17;;
65835;SDS011;52595;51.608;7.216;2022-09-09T13:20:49;2.42;;;1.20;;
65835;SDS011;52595;51.608;7.216;2022-09-09T13:23:16;3.40;;;1.30;;
65835;SDS011;52595;51.608;7.216;2022-09-09T13:25:58;2.10;;;1.10;;
65835;SDS011;52595;51.608;7.216;2022-09-09T13:28:26;4.05;;;1.35;;
65835;SDS011;52595;51.608;7.216;2022-09-09T13:31:01;4.25;;;1.40;;
65835;SDS011;52595;51.608;7.216;2022-09-09T13:33:29;3.40;;;1.50;;
65835;SDS011;52595;51.608;7.216;2022-09-09T13:36:02;2.97;;;1.40;;
65835;SDS011;52595;51.608;7.216;2022-09-09T13:38:36;2.78;;;1.33;;
65835;SDS011;52595;51.608;7.216;2022-09-09T13:41:21;2.85;;;1.40;;
65835;SDS011;52595;51.608;7.216;2022-09-09T13:43:48;3.88;;;1.42;;
65835;SDS011;52595;51.608;7.216;2022-09-09T13:51:43;7.55;;;2.17;;
65835;SDS011;52595;51.608;7.216;2022-09-09T13:54:18;9.35;;;2.30;;
65835;SDS011;52595;51.608;7.216;2022-09-09T13:56:44;8.38;;;2.70;;
65835;SDS011;52595;51.608;7.216;2022-09-09T13:59:11;8.77;;;2.65;;
65835;SDS011;52595;51.608;7.216;2022-09-09T14:01:38;7.40;;;2.10;;
65835;SDS011;52595;51.608;7.216;2022-09-09T14:04:05;4.88;;;2.20;;
65835;SDS011;52595;51.608;7.216;2022-09-09T14:06:31;7.57;;;2.80;;
65835;SDS011;52595;51.608;7.216;2022-09-09T14:08:57;6.97;;;2.42;;
65835;SDS011;52595;51.608;7.216;2022-09-09T14:11:23;10.43;;;2.80;;
65835;SDS011;52595;51.608;7.216;2022-09-09T14:13:48;7.70;;;2.67;;
65835;SDS011;52595;51.608;7.216;2022-09-09T14:16:17;6.43;;;2.72;;
65835;SDS011;52595;51.608;7.216;2022-09-09T14:18:43;5.55;;;2.60;;
65835;SDS011;52595;51.608;7.216;2022-09-09T14:21:09;7.85;;;2.60;;
65835;SDS011;52595;51.608;7.216;2022-09-09T14:23:36;7.95;;;3.00;;
65835;SDS011;52595;51.608;7.216;2022-09-09T14:26:03;5.93;;;2.47;;
65835;SDS011;52595;51.608;7.216;2022-09-09T14:28:32;6.72;;;2.38;;
65835;SDS011;52595;51.608;7.216;2022-09-09T14:31:01;4.43;;;2.00;;
65835;SDS011;52595;51.608;7.216;2022-09-09T14:33:28;3.30;;;1.80;;
65835;SDS011;52595;51.608;7.216;2022-09-09T14:35:58;4.75;;;1.85;;
65835;SDS011;52595;51.608;7.216;2022-09-09T14:38:25;2.78;;;1.48;;
65835;SDS011;52595;51.608;7.216;2022-09-09T14:40:53;3.20;;;1.10;;
65835;SDS011;52595;51.608;7.216;2022-09-09T14:43:18;3.38;;;1.30;;
65835;SDS011;52595;51.608;7.216;2022-09-09T14:45:45;3.50;;;1.30;;
65835;SDS011;52595;51.608;7.216;2022-09-09T14:48:10;3.78;;;1.48;;
65835;SDS011;52595;51.608;7.216;2022-09-09T14:50:36;2.83;;;1.25;;
65835;SDS011;52595;51.608;7.216;2022-09-09T14:53:04;4.60;;;1.40;;
65835;SDS011;52595;51.608;7.216;2022-09-09T14:55:30;3.45;;;1.30;;
65835;SDS011;52595;51.608;7.216;2022-09-09T14:57:56;3.67;;;1.45;;
65835;SDS011;52595;51.608;7.216;2022-09-09T15:00:21;3.75;;;1.70;;
65835;SDS011;52595;51.608;7.216;2022-09-09T15:02:47;4.30;;;1.80;;
65835;SDS011;52595;51.608;7.216;2022-09-09T15:05:12;3.35;;;1.77;;
65835;SDS011;52595;51.608;7.216;2022-09-09T15:07:38;5.43;;;2.08;;
65835;SDS011;52595;51.608;7.216;2022-09-09T15:10:03;4.53;;;2.10;;
65835;SDS011;52595;51.608;7.216;2022-09-09T15:12:29;5.65;;;2.10;;
65835;SDS011;52595;51.608;7.216;2022-09-09T15:14:55;5.00;;;2.28;;
65835;SDS011;52595;51.608;7.216;2022-09-09T15:17:20;7.07;;;2.75;;
65835;SDS011;52595;51.608;7.216;2022-09-09T15:19:46;7.20;;;2.50;;
65835;SDS011;52595;51.608;7.216;2022-09-09T15:22:11;6.78;;;2.80;;
65835;SDS011;52595;51.608;7.216;2022-09-09T15:24:37;4.15;;;2.60;;
65835;SDS011;52595;51.608;7.216;2022-09-09T15:27:02;6.50;;;2.60;;
65835;SDS011;52595;51.608;7.216;2022-09-09T15:29:28;4.88;;;2.70;;
65835;SDS011;52595;51.608;7.216;2022-09-09T15:31:54;6.05;;;2.90;;
65835;SDS011;52595;51.608;7.216;2022-09-09T15:34:20;7.28;;;2.28;;
65835;SDS011;52595;51.608;7.216;2022-09-09T15:36:45;3.00;;;1.30;;
65835;SDS011;52595;51.608;7.216;2022-09-09T15:39:12;4.13;;;1.40;;
65835;SDS011;52595;51.608;7.216;2022-09-09T15:41:41;1.63;;;1.10;;
65835;SDS011;52595;51.608;7.216;2022-09-09T15:44:07;1.80;;;1.02;;
65835;SDS011;52595;51.608;7.216;2022-09-09T15:46:39;1.55;;;1.00;;
65835;SDS011;52595;51.608;7.216;2022-09-09T15:51:39;1.55;;;1.23;;
65835;SDS011;52595;51.608;7.216;2022-09-09T15:54:12;3.55;;;1.48;;
65835;SDS011;52595;51.608;7.216;2022-09-09T15:56:40;3.65;;;1.52;;
65835;SDS011;52595;51.608;7.216;2022-09-09T15:59:06;4.68;;;1.23;;
65835;SDS011;52595;51.608;7.216;2022-09-09T16:01:32;2.40;;;1.35;;
65835;SDS011;52595;51.608;7.216;2022-09-09T16:03:58;4.75;;;1.63;;
65835;SDS011;52595;51.608;7.216;2022-09-09T16:06:24;5.82;;;1.38;;
65835;SDS011;52595;51.608;7.216;2022-09-09T16:08:50;4.13;;;1.40;;
65835;SDS011;52595;51.608;7.216;2022-09-09T16:11:25;1.70;;;1.23;;
65835;SDS011;52595;51.608;7.216;2022-09-09T16:13:52;3.40;;;1.60;;
65835;SDS011;52595;51.608;7.216;2022-09-09T16:16:20;2.45;;;1.40;;
65835;SDS011;52595;51.608;7.216;2022-09-09T16:18:50;4.30;;;1.45;;
65835;SDS011;52595;51.608;7.216;2022-09-09T16:23:47;4.53;;;1.55;;
65835;SDS011;52595;51.608;7.216;2022-09-09T16:26:14;3.88;;;1.90;;
65835;SDS011;52595;51.608;7.216;2022-09-09T16:28:42;3.80;;;1.90;;
65835;SDS011;52595;51.608;7.216;2022-09-09T16:31:09;3.03;;;1.45;;
65835;SDS011;52595;51.608;7.216;2022-09-09T16:33:37;3.70;;;1.60;;
65835;SDS011;52595;51.608;7.216;2022-09-09T16:36:09;2.55;;;1.40;;
65835;SDS011;52595;51.608;7.216;2022-09-09T16:38:37;2.60;;;1.27;;
65835;SDS011;52595;51.608;7.216;2022-09-09T16:41:03;2.85;;;1.60;;
65835;SDS011;52595;51.608;7.216;2022-09-09T16:43:30;2.38;;;1.55;;
65835;SDS011;52595;51.608;7.216;2022-09-09T16:45:56;2.05;;;1.40;;
65835;SDS011;52595;51.608;7.216;2022-09-09T16:48:22;3.35;;;1.35;;
65835;SDS011;52595;51.608;7.216;2022-09-09T16:50:47;1.98;;;1.40;;
65835;SDS011;52595;51.608;7.216;2022-09-09T16:53:13;3.72;;;1.50;;
65835;SDS011;52595;51.608;7.216;2022-09-09T16:55:40;3.78;;;1.55;;
65835;SDS011;52595;51.608;7.216;2022-09-09T16:58:06;4.53;;;1.52;;
65835;SDS011;52595;51.608;7.216;2022-09-09T17:00:33;3.58;;;1.50;;
65835;SDS011;52595;51.608;7.216;2022-09-09T17:02:59;2.60;;;1.30;;
65835;SDS011;52595;51.608;7.216;2022-09-09T17:05:24;3.05;;;1.40;;
65835;SDS011;52595;51.608;7.216;2022-09-09T17:07:50;3.65;;;1.35;;
65835;SDS011;52595;51.608;7.216;2022-09-09T17:10:16;2.95;;;1.13;;
65835;SDS011;52595;51.608;7.216;2022-09-09T17:12:41;2.97;;;1.40;;
65835;SDS011;52595;51.608;7.216;2022-09-09T17:15:07;3.05;;;1.40;;
65835;SDS011;52595;51.608;7.216;2022-09-09T17:17:32;3.28;;;1.60;;
65835;SDS011;52595;51.608;7.216;2022-09-09T17:19:58;2.90;;;1.58;;
65835;SDS011;52595;51.608;7.216;2022-09-09T17:22:23;3.28;;;1.80;;
65835;SDS011;52595;51.608;7.216;2022-09-09T17:24:51;4.32;;;1.83;;
65835;SDS011;52595;51.608;7.216;2022-09-09T17:27:16;3.13;;;1.90;;
65835;SDS011;52595;51.608;7.216;2022-09-09T17:29:42;4.32;;;2.08;;
65835;SDS011;52595;51.608;7.216;2022-09-09T17:32:07;2.75;;;2.10;;
65835;SDS011;52595;51.608;7.216;2022-09-09T17:34:33;6.15;;;2.30;;
65835;SDS011;52595;51.608;7.216;2022-09-09T17:37:00;4.45;;;1.98;;
65835;SDS011;52595;51.608;7.216;2022-09-09T17:39:25;4.93;;;2.17;;